createdAt,value
2019-03-29T00:01:22.212Z,6.85
2019-03-29T00:03:42.870Z,5.45
2019-03-29T00:06:03.598Z,5.17
2019-03-29T00:08:24.436Z,5.85
2019-03-29T00:10:45.167Z,5.03
2019-03-29T00:13:05.678Z,7.17
2019-03-29T00:15:26.191Z,5.87
2019-03-29T00:17:46.638Z,5.90
2019-03-29T00:20:07.801Z,7.03
2019-03-29T00:22:38.641Z,5.62
2019-03-29T00:24:59.209Z,10.35
2019-03-29T00:27:25.740Z,8.15
2019-03-29T00:29:46.320Z,5.17
2019-03-29T00:32:06.943Z,6.45
2019-03-29T00:34:29.176Z,7.20
2019-03-29T00:36:49.674Z,5.50
2019-03-29T00:39:10.219Z,5.00
2019-03-29T00:41:30.740Z,7.55
2019-03-29T00:43:51.321Z,4.78
2019-03-29T00:46:12.026Z,4.95
2019-03-29T00:48:35.489Z,7.30
2019-03-29T00:50:54.771Z,5.92
2019-03-29T00:53:15.488Z,5.78
2019-03-29T00:55:36.026Z,7.50
2019-03-29T00:57:56.916Z,6.42
2019-03-29T01:00:17.881Z,7.22
2019-03-29T01:02:38.502Z,6.45
2019-03-29T01:04:59.706Z,5.72
2019-03-29T01:07:25.771Z,7.12
2019-03-29T01:09:46.333Z,7.20
2019-03-29T01:12:06.969Z,8.55
2019-03-29T01:14:27.773Z,5.97
2019-03-29T01:16:48.414Z,5.60
2019-03-29T01:19:08.945Z,5.17
2019-03-29T01:21:30.524Z,5.50
2019-03-29T01:23:51.872Z,7.03
2019-03-29T01:26:12.817Z,6.78
2019-03-29T01:28:34.884Z,5.62
2019-03-29T01:30:55.463Z,7.90
2019-03-29T01:33:16.018Z,7.17
2019-03-29T01:35:36.455Z,6.12
2019-03-29T01:37:56.886Z,5.83
2019-03-29T01:40:19.487Z,6.30
2019-03-29T01:42:39.780Z,2.80
2019-03-29T01:45:00.384Z,4.97
2019-03-29T01:47:21.093Z,5.83
2019-03-29T01:49:42.617Z,5.45
2019-03-29T01:52:03.371Z,4.45
2019-03-29T01:54:23.874Z,6.40
2019-03-29T01:56:44.392Z,5.28
2019-03-29T01:59:05.194Z,4.30
2019-03-29T02:01:25.774Z,5.25
2019-03-29T02:03:47.168Z,7.40
2019-03-29T02:06:07.728Z,6.50
2019-03-29T02:08:35.771Z,6.75
2019-03-29T02:10:50.149Z,6.30
2019-03-29T02:13:10.727Z,7.55
2019-03-29T02:15:31.185Z,6.15
2019-03-29T02:17:51.784Z,7.03
2019-03-29T02:20:13.209Z,7.65
2019-03-29T02:22:33.824Z,7.55
2019-03-29T02:24:54.409Z,5.97
2019-03-29T02:27:14.978Z,5.92
2019-03-29T02:29:36.239Z,5.87
2019-03-29T02:31:57.470Z,6.00
2019-03-29T02:34:17.980Z,5.60
2019-03-29T02:36:38.495Z,6.22
2019-03-29T02:38:59.456Z,8.30
2019-03-29T02:41:20.035Z,6.20
2019-03-29T02:43:40.592Z,8.25
2019-03-29T02:46:01.161Z,6.03
2019-03-29T02:48:21.734Z,7.47
2019-03-29T02:50:42.261Z,5.58
2019-03-29T02:53:02.826Z,6.17
2019-03-29T02:55:23.691Z,7.20
2019-03-29T02:57:44.337Z,8.08
2019-03-29T03:00:07.773Z,5.37
2019-03-29T03:02:28.277Z,6.72
2019-03-29T03:04:48.770Z,6.20
2019-03-29T03:07:13.177Z,5.92
2019-03-29T03:09:33.748Z,8.40
2019-03-29T03:11:54.353Z,6.72
2019-03-29T03:14:14.872Z,6.35
2019-03-29T03:16:35.487Z,9.58
2019-03-29T03:18:56.160Z,7.05
2019-03-29T03:21:16.678Z,16.85
2019-03-29T03:23:38.342Z,5.60
2019-03-29T03:25:58.901Z,6.40
2019-03-29T03:28:19.525Z,10.20
2019-03-29T03:30:40.076Z,5.60
2019-03-29T03:33:00.624Z,8.03
2019-03-29T03:35:21.145Z,6.90
2019-03-29T03:37:41.774Z,6.20
2019-03-29T03:40:02.287Z,6.22
2019-03-29T03:42:22.823Z,6.58
2019-03-29T03:44:43.461Z,5.35
2019-03-29T03:47:04.050Z,6.42
2019-03-29T03:49:24.734Z,9.03
2019-03-29T03:51:45.335Z,6.83
2019-03-29T03:54:18.395Z,6.20
2019-03-29T03:56:39.442Z,15.48
2019-03-29T03:59:00.254Z,7.42
2019-03-29T04:01:20.781Z,6.45
2019-03-29T04:03:41.341Z,7.70
2019-03-29T04:06:01.932Z,9.15
2019-03-29T04:08:22.504Z,6.35
2019-03-29T04:10:44.074Z,8.25
2019-03-29T04:13:04.635Z,7.00
2019-03-29T04:15:25.359Z,7.22
2019-03-29T04:17:45.903Z,9.05
2019-03-29T04:20:07.227Z,7.30
2019-03-29T04:22:27.743Z,6.33
2019-03-29T04:24:48.440Z,6.60
2019-03-29T04:27:09.125Z,7.58
2019-03-29T04:29:29.650Z,10.38
2019-03-29T04:31:50.187Z,6.83
2019-03-29T04:34:10.684Z,8.60
2019-03-29T04:36:38.286Z,10.32
2019-03-29T04:38:58.819Z,7.25
2019-03-29T04:41:19.334Z,6.28
2019-03-29T04:43:40.096Z,8.15
2019-03-29T04:46:00.698Z,8.63
2019-03-29T04:48:22.348Z,8.20
2019-03-29T04:50:42.853Z,7.20
2019-03-29T04:53:04.528Z,7.90
2019-03-29T04:55:24.969Z,15.25
2019-03-29T04:57:45.535Z,9.50
2019-03-29T05:00:09.137Z,12.90
2019-03-29T05:02:29.709Z,8.08
2019-03-29T05:04:50.219Z,14.98
2019-03-29T05:07:10.835Z,8.70
2019-03-29T05:09:31.328Z,9.73
2019-03-29T05:11:51.948Z,14.40
2019-03-29T05:14:12.538Z,8.23
2019-03-29T05:16:33.152Z,10.48
2019-03-29T05:18:53.689Z,9.90
2019-03-29T05:21:14.202Z,10.32
2019-03-29T05:23:34.671Z,12.25
2019-03-29T05:25:55.194Z,11.38
2019-03-29T05:28:15.925Z,12.13
2019-03-29T05:30:36.571Z,11.30
2019-03-29T05:32:57.033Z,13.48
2019-03-29T05:35:17.665Z,12.15
2019-03-29T05:37:38.297Z,10.78
2019-03-29T05:39:58.896Z,13.93
2019-03-29T05:42:19.523Z,11.70
2019-03-29T05:44:40.948Z,13.48
2019-03-29T05:47:01.697Z,12.50
2019-03-29T05:49:22.438Z,11.83
2019-03-29T05:51:43.005Z,9.95
2019-03-29T05:54:03.683Z,9.68
2019-03-29T05:56:24.344Z,13.13
2019-03-29T05:58:44.811Z,7.75
2019-03-29T06:01:05.437Z,10.82
2019-03-29T06:03:31.980Z,9.30
2019-03-29T06:05:52.508Z,7.67
2019-03-29T06:08:13.178Z,9.75
2019-03-29T06:10:33.673Z,7.65
2019-03-29T06:12:54.354Z,9.48
2019-03-29T06:15:15.210Z,7.80
2019-03-29T06:17:47.986Z,9.00
2019-03-29T06:19:58.297Z,9.95
2019-03-29T06:22:21.959Z,8.80
2019-03-29T06:24:42.508Z,9.70
2019-03-29T06:27:03.122Z,11.50
2019-03-29T06:31:55.840Z,8.35
2019-03-29T06:34:16.488Z,8.78
2019-03-29T06:36:37.615Z,6.30
2019-03-29T06:38:57.891Z,7.22
2019-03-29T06:41:17.909Z,8.53
2019-03-29T06:43:38.167Z,7.57
2019-03-29T06:46:00.085Z,6.23
2019-03-29T06:48:20.130Z,6.97
2019-03-29T06:50:41.161Z,7.85
2019-03-29T06:53:01.200Z,7.90
2019-03-29T06:55:21.439Z,9.63
2019-03-29T06:57:41.660Z,8.83
2019-03-29T07:00:02.440Z,8.27
2019-03-29T07:02:24.132Z,11.22
2019-03-29T07:04:44.177Z,8.20
2019-03-29T07:07:04.868Z,12.85
2019-03-29T07:09:25.456Z,12.28
2019-03-29T07:11:45.963Z,10.08
2019-03-29T07:14:06.570Z,8.45
2019-03-29T07:16:26.591Z,9.03
2019-03-29T07:18:47.084Z,15.65
2019-03-29T07:21:20.979Z,13.88
2019-03-29T07:23:30.659Z,9.57
2019-03-29T07:25:51.572Z,11.15
2019-03-29T07:28:16.037Z,12.40
2019-03-29T07:30:36.116Z,11.48
2019-03-29T07:32:56.248Z,9.53
2019-03-29T07:35:16.242Z,11.65
2019-03-29T07:37:37.437Z,11.43
2019-03-29T07:39:57.758Z,8.17
2019-03-29T07:42:18.047Z,9.07
2019-03-29T07:44:43.714Z,11.40
2019-03-29T07:47:03.978Z,10.67
2019-03-29T07:49:24.204Z,8.17
2019-03-29T07:51:44.460Z,11.33
2019-03-29T07:54:04.935Z,7.77
2019-03-29T07:56:25.256Z,9.13
2019-03-29T07:58:45.489Z,10.00
2019-03-29T08:01:05.747Z,11.63
2019-03-29T08:03:26.180Z,7.10
2019-03-29T08:05:46.410Z,10.33
2019-03-29T08:08:06.675Z,9.87
2019-03-29T08:10:30.950Z,8.40
2019-03-29T08:12:50.526Z,11.03
2019-03-29T08:15:11.180Z,12.53
2019-03-29T08:17:31.435Z,9.03
2019-03-29T08:20:12.894Z,9.50
2019-03-29T08:22:13.871Z,7.70
2019-03-29T08:24:34.441Z,13.35
2019-03-29T08:26:54.321Z,7.58
2019-03-29T08:29:14.783Z,9.18
2019-03-29T08:31:35.221Z,8.75
2019-03-29T08:33:55.835Z,11.97
2019-03-29T08:36:16.351Z,8.13
2019-03-29T08:38:37.629Z,8.60
2019-03-29T08:40:57.872Z,9.23
2019-03-29T08:43:18.324Z,12.53
2019-03-29T08:45:38.864Z,8.53
2019-03-29T08:47:58.831Z,8.40
2019-03-29T08:50:19.332Z,9.07
2019-03-29T08:52:39.547Z,9.13
2019-03-29T08:54:59.743Z,10.67
2019-03-29T08:57:20.399Z,13.28
2019-03-29T08:59:40.413Z,14.15
2019-03-29T09:02:01.041Z,11.00
2019-03-29T09:04:21.877Z,9.33
2019-03-29T09:06:52.673Z,11.17
2019-03-29T09:09:06.452Z,9.33
2019-03-29T09:11:26.841Z,10.35
2019-03-29T09:13:46.942Z,8.78
2019-03-29T09:16:06.969Z,11.48
2019-03-29T09:18:27.001Z,8.55
2019-03-29T09:20:47.074Z,9.23
2019-03-29T09:23:10.302Z,9.55
2019-03-29T09:25:28.887Z,6.93
2019-03-29T09:27:49.247Z,10.40
2019-03-29T09:30:09.643Z,9.47
2019-03-29T09:32:30.718Z,9.30
2019-03-29T09:34:50.938Z,7.53
2019-03-29T09:37:11.117Z,9.33
2019-03-29T09:39:31.291Z,12.80
2019-03-29T09:41:51.701Z,9.40
2019-03-29T09:44:11.962Z,9.57
2019-03-29T09:46:33.110Z,9.87
2019-03-29T09:48:53.546Z,9.77
2019-03-29T09:51:14.030Z,8.87
2019-03-29T09:53:34.299Z,9.43
2019-03-29T09:55:54.756Z,10.23
2019-03-29T09:58:20.977Z,8.97
2019-03-29T10:00:41.242Z,10.83
2019-03-29T10:03:01.481Z,9.57
2019-03-29T10:05:22.007Z,11.20
2019-03-29T10:07:42.210Z,8.50
2019-03-29T10:10:02.631Z,9.80
2019-03-29T10:12:24.132Z,9.97
2019-03-29T10:14:44.622Z,8.57
2019-03-29T10:17:04.842Z,9.27
2019-03-29T10:19:25.149Z,9.67
2019-03-29T10:21:45.388Z,11.70
2019-03-29T10:24:05.784Z,13.00
2019-03-29T10:26:26.062Z,10.87
2019-03-29T10:28:46.216Z,10.40
2019-03-29T10:31:06.599Z,8.10
2019-03-29T10:33:27.004Z,10.40
2019-03-29T10:35:51.898Z,7.87
2019-03-29T10:38:09.376Z,9.63
2019-03-29T10:40:29.596Z,12.30
2019-03-29T10:42:57.494Z,10.00
2019-03-29T10:45:12.175Z,8.73
2019-03-29T10:47:43.287Z,11.57
2019-03-29T10:49:54.711Z,7.93
2019-03-29T10:52:15.029Z,9.10
2019-03-29T10:54:35.283Z,8.67
2019-03-29T10:56:55.600Z,11.53
2019-03-29T10:59:26.571Z,8.93
2019-03-29T11:01:38.774Z,11.20
2019-03-29T11:03:58.809Z,10.00
2019-03-29T11:06:19.112Z,8.73
2019-03-29T11:08:39.467Z,10.73
2019-03-29T11:10:59.742Z,9.47
2019-03-29T11:13:20.065Z,7.23
2019-03-29T11:15:40.289Z,8.63
2019-03-29T11:18:00.657Z,8.30
2019-03-29T11:20:21.962Z,8.93
2019-03-29T11:22:42.204Z,9.73
2019-03-29T11:25:02.590Z,8.90
2019-03-29T11:27:23.122Z,10.73
2019-03-29T11:29:43.470Z,9.10
2019-03-29T11:32:03.689Z,9.57
2019-03-29T11:34:24.014Z,9.07
2019-03-29T11:36:44.279Z,11.47
2019-03-29T11:39:06.973Z,10.17
2019-03-29T11:41:27.215Z,8.50
2019-03-29T11:43:47.280Z,10.05
2019-03-29T11:46:07.526Z,12.00
2019-03-29T11:48:29.572Z,11.57
2019-03-29T11:50:49.727Z,8.90
2019-03-29T11:53:10.090Z,10.70
2019-03-29T11:55:33.438Z,9.30
2019-03-29T11:57:55.786Z,9.85
2019-03-29T12:00:19.584Z,8.85
2019-03-29T12:02:39.852Z,14.20
2019-03-29T12:04:59.842Z,11.48
2019-03-29T12:07:20.255Z,9.67
2019-03-29T12:09:40.561Z,10.30
2019-03-29T12:12:00.720Z,10.93
2019-03-29T12:14:21.986Z,10.37
2019-03-29T12:16:42.274Z,9.73
2019-03-29T12:19:02.572Z,9.27
2019-03-29T12:21:22.862Z,9.93
2019-03-29T12:23:43.020Z,10.70
2019-03-29T12:26:03.353Z,9.00
2019-03-29T12:28:23.667Z,9.30
2019-03-29T12:30:44.775Z,10.37
2019-03-29T12:33:05.139Z,9.07
2019-03-29T12:35:25.585Z,16.17
2019-03-29T12:37:45.896Z,11.93
2019-03-29T12:40:08.307Z,8.50
2019-03-29T12:42:28.588Z,9.50
2019-03-29T12:44:48.558Z,9.30
2019-03-29T12:47:08.991Z,10.23
2019-03-29T12:49:29.250Z,11.80
2019-03-29T12:51:49.395Z,12.77
2019-03-29T12:54:12.127Z,14.17
2019-03-29T12:56:31.543Z,9.73
2019-03-29T12:58:51.966Z,9.93
2019-03-29T13:01:12.348Z,8.87
2019-03-29T13:03:32.885Z,9.90
2019-03-29T13:05:53.169Z,8.77
2019-03-29T13:08:13.421Z,10.20
2019-03-29T13:10:33.577Z,8.07
2019-03-29T13:12:53.798Z,8.37
2019-03-29T13:15:14.197Z,10.80
2019-03-29T13:17:34.694Z,8.97
2019-03-29T13:19:55.065Z,8.50
2019-03-29T13:22:15.390Z,10.63
2019-03-29T13:24:35.589Z,11.67
2019-03-29T13:26:55.729Z,8.67
2019-03-29T13:29:16.054Z,9.30
2019-03-29T13:31:36.372Z,8.57
2019-03-29T13:33:56.915Z,9.57
2019-03-29T13:36:17.133Z,10.50
2019-03-29T13:38:37.464Z,10.23
2019-03-29T13:40:57.716Z,8.93
2019-03-29T13:43:18.077Z,7.80
2019-03-29T13:45:38.533Z,9.13
2019-03-29T13:47:58.787Z,10.17
2019-03-29T13:50:19.161Z,8.33
2019-03-29T13:52:39.450Z,9.10
2019-03-29T13:54:59.848Z,11.10
2019-03-29T13:57:20.258Z,8.17
2019-03-29T13:59:40.540Z,7.67
2019-03-29T14:02:01.193Z,8.93
2019-03-29T14:04:21.358Z,10.50
2019-03-29T14:06:41.600Z,9.57
2019-03-29T14:09:01.784Z,9.93
2019-03-29T14:11:23.503Z,8.93
2019-03-29T14:13:43.745Z,10.10
2019-03-29T14:16:04.065Z,8.37
2019-03-29T14:18:24.452Z,8.77
2019-03-29T14:20:44.711Z,10.40
2019-03-29T14:23:05.098Z,8.57
2019-03-29T14:25:25.317Z,9.60
2019-03-29T14:27:45.610Z,9.67
2019-03-29T14:30:07.896Z,7.40
2019-03-29T14:32:28.126Z,9.45
2019-03-29T14:34:48.023Z,7.53
2019-03-29T14:37:08.017Z,8.15
2019-03-29T14:39:27.903Z,9.03
2019-03-29T14:41:48.054Z,7.70
2019-03-29T14:44:07.947Z,7.85
2019-03-29T14:46:27.842Z,8.83
2019-03-29T14:48:47.794Z,8.85
2019-03-29T14:51:07.705Z,8.55
2019-03-29T14:53:27.682Z,8.78
2019-03-29T14:55:47.926Z,9.23
2019-03-29T14:58:08.236Z,11.27
2019-03-29T15:00:39.961Z,9.03
2019-03-29T15:03:00.212Z,9.77
2019-03-29T15:05:20.544Z,7.70
2019-03-29T15:07:42.783Z,12.10
2019-03-29T15:10:05.032Z,13.60
2019-03-29T15:12:25.243Z,8.20
2019-03-29T15:14:45.217Z,12.58
2019-03-29T15:17:05.560Z,9.80
2019-03-29T15:19:25.581Z,8.30
2019-03-29T15:21:45.536Z,9.00
2019-03-29T15:24:05.703Z,8.58
2019-03-29T15:26:25.761Z,8.60
2019-03-29T15:28:45.709Z,10.23
2019-03-29T15:31:08.194Z,8.10
2019-03-29T15:33:29.458Z,9.63
2019-03-29T15:35:50.863Z,7.53
2019-03-29T15:38:11.214Z,9.53
2019-03-29T15:40:31.538Z,8.30
2019-03-29T15:42:51.812Z,10.60
2019-03-29T15:45:20.218Z,8.90
2019-03-29T15:47:35.749Z,8.53
2019-03-29T15:49:56.618Z,7.27
2019-03-29T15:52:16.995Z,11.23
2019-03-29T15:54:37.207Z,8.33
2019-03-29T15:56:57.350Z,7.90
2019-03-29T15:59:17.611Z,8.47
2019-03-29T16:01:38.901Z,9.10
2019-03-29T16:03:59.284Z,8.77
2019-03-29T16:06:19.529Z,9.00
2019-03-29T16:08:39.864Z,15.47
2019-03-29T16:11:00.355Z,9.50
2019-03-29T16:13:22.230Z,10.20
2019-03-29T16:15:42.568Z,9.07
2019-03-29T16:18:02.936Z,11.03
2019-03-29T16:20:23.621Z,11.40
2019-03-29T16:22:43.900Z,11.07
2019-03-29T16:25:08.399Z,11.43
2019-03-29T16:27:28.749Z,10.13
2019-03-29T16:29:50.092Z,14.17
2019-03-29T16:32:10.404Z,9.70
2019-03-29T16:34:30.657Z,11.10
2019-03-29T16:36:50.996Z,12.77
2019-03-29T16:39:11.160Z,10.90
2019-03-29T16:41:31.379Z,10.57
2019-03-29T16:43:51.576Z,13.50
2019-03-29T16:46:12.021Z,12.03
2019-03-29T16:48:32.400Z,10.67
2019-03-29T16:50:52.639Z,10.37
2019-03-29T16:53:12.911Z,12.13
2019-03-29T16:55:33.578Z,15.40
2019-03-29T16:57:53.813Z,12.10
2019-03-29T17:00:15.701Z,9.70
2019-03-29T17:02:36.223Z,10.97
2019-03-29T17:04:56.457Z,11.73
2019-03-29T17:07:16.618Z,11.10
2019-03-29T17:09:36.888Z,11.00
2019-03-29T17:11:57.557Z,15.38
2019-03-29T17:14:18.126Z,13.93
2019-03-29T17:16:38.755Z,19.92
2019-03-29T17:18:58.638Z,10.48
2019-03-29T17:21:18.797Z,11.05
2019-03-29T17:23:42.448Z,12.55
2019-03-29T17:26:02.998Z,10.53
2019-03-29T17:28:23.168Z,9.20
2019-03-29T17:30:45.218Z,10.53
2019-03-29T17:33:05.901Z,12.47
2019-03-29T17:35:26.451Z,10.95
2019-03-29T17:37:47.040Z,12.70
2019-03-29T17:40:08.668Z,17.67
2019-03-29T17:42:28.773Z,13.65
2019-03-29T17:44:48.745Z,12.05
2019-03-29T17:47:09.284Z,14.50
2019-03-29T17:49:29.963Z,12.13
2019-03-29T17:51:50.599Z,10.35
2019-03-29T17:54:10.723Z,8.90
2019-03-29T17:56:31.390Z,14.10
2019-03-29T17:58:52.164Z,15.98
2019-03-29T18:01:13.108Z,15.35
2019-03-29T18:03:33.210Z,14.50
2019-03-29T18:05:53.416Z,16.25
2019-03-29T18:08:13.950Z,20.40
2019-03-29T18:10:34.510Z,10.13
2019-03-29T18:12:55.106Z,13.20
2019-03-29T18:15:15.967Z,13.85
2019-03-29T18:17:36.442Z,13.70
2019-03-29T18:19:57.044Z,13.18
2019-03-29T18:22:17.074Z,13.08
2019-03-29T18:24:37.604Z,14.30
2019-03-29T18:26:58.229Z,13.80
2019-03-29T18:29:18.353Z,14.85
2019-03-29T18:31:39.354Z,13.35
2019-03-29T18:34:01.727Z,12.40
2019-03-29T18:36:22.635Z,20.80
2019-03-29T18:38:44.700Z,12.90
2019-03-29T18:41:04.727Z,13.90
2019-03-29T18:43:25.299Z,22.58
2019-03-29T18:45:45.985Z,13.43
2019-03-29T18:48:06.534Z,12.23
2019-03-29T18:50:27.076Z,15.18
2019-03-29T18:52:47.621Z,14.07
2019-03-29T18:55:08.350Z,16.75
2019-03-29T18:57:28.946Z,17.50
2019-03-29T18:59:49.499Z,17.23
2019-03-29T19:02:10.264Z,22.02
2019-03-29T19:04:30.806Z,26.40
2019-03-29T19:06:51.550Z,20.40
2019-03-29T19:09:12.084Z,20.15
2019-03-29T19:11:32.024Z,21.33
2019-03-29T19:13:52.578Z,18.90
2019-03-29T19:16:14.136Z,20.72
2019-03-29T19:18:34.913Z,21.75
2019-03-29T19:20:57.415Z,23.18
2019-03-29T19:23:18.654Z,19.13
2019-03-29T19:25:39.212Z,19.92
2019-03-29T19:27:59.671Z,16.23
2019-03-29T19:30:21.943Z,21.00
2019-03-29T19:32:42.601Z,24.50
2019-03-29T19:35:03.379Z,22.02
2019-03-29T19:37:32.125Z,26.52
2019-03-29T19:39:52.786Z,27.82
2019-03-29T19:42:16.610Z,29.57
2019-03-29T19:44:35.783Z,25.70
2019-03-29T19:46:56.380Z,27.65
2019-03-29T19:49:16.988Z,29.52
2019-03-29T19:51:37.455Z,25.40
2019-03-29T19:54:07.121Z,28.00
2019-03-29T19:56:20.246Z,26.85
2019-03-29T19:58:40.897Z,26.20
2019-03-29T20:01:01.494Z,23.87
2019-03-29T20:03:22.154Z,24.25
2019-03-29T20:05:42.860Z,25.30
2019-03-29T20:08:03.537Z,26.62
2019-03-29T20:10:24.419Z,25.95
2019-03-29T20:12:44.961Z,26.35
2019-03-29T20:15:06.655Z,38.23
2019-03-29T20:17:27.969Z,30.72
2019-03-29T20:19:48.631Z,29.60
2019-03-29T20:22:09.256Z,26.90
2019-03-29T20:24:29.743Z,26.17
2019-03-29T20:26:50.434Z,28.00
2019-03-29T20:29:10.965Z,43.52
2019-03-29T20:31:33.616Z,195.55
2019-03-29T20:33:54.115Z,159.63
2019-03-29T20:36:22.354Z,152.20
2019-03-29T20:38:37.217Z,36.95
2019-03-29T20:40:57.764Z,32.90
2019-03-29T20:43:18.301Z,55.12
2019-03-29T20:45:38.894Z,65.25
2019-03-29T20:47:59.547Z,90.85
2019-03-29T20:50:20.288Z,122.65
2019-03-29T20:52:40.939Z,63.75
2019-03-29T20:55:01.500Z,48.75
2019-03-29T20:57:21.959Z,106.32
2019-03-29T20:59:42.600Z,71.57
2019-03-29T21:02:03.127Z,59.18
2019-03-29T21:04:23.754Z,37.55
2019-03-29T21:06:44.277Z,88.17
2019-03-29T21:09:07.093Z,69.45
2019-03-29T21:11:27.527Z,43.58
2019-03-29T21:13:48.291Z,29.12
2019-03-29T21:16:08.943Z,89.85
2019-03-29T21:18:29.550Z,38.45
2019-03-29T21:20:50.086Z,28.92
2019-03-29T21:23:10.716Z,27.48
2019-03-29T21:25:31.172Z,45.03
2019-03-29T21:27:52.033Z,30.70
2019-03-29T21:30:13.301Z,28.15
2019-03-29T21:32:33.839Z,29.63
2019-03-29T21:34:54.317Z,24.72
2019-03-29T21:37:14.904Z,24.47
2019-03-29T21:39:35.485Z,22.42
2019-03-29T21:41:56.157Z,22.67
2019-03-29T21:44:16.642Z,20.23
2019-03-29T21:46:37.118Z,24.18
2019-03-29T21:49:01.635Z,21.55
2019-03-29T21:51:23.261Z,23.07
2019-03-29T21:53:45.151Z,21.05
2019-03-29T21:56:05.752Z,24.47
2019-03-29T21:58:26.235Z,23.35
2019-03-29T22:00:47.763Z,21.93
2019-03-29T22:03:10.320Z,20.68
2019-03-29T22:05:30.692Z,24.27
2019-03-29T22:07:51.234Z,20.02
2019-03-29T22:10:12.066Z,19.73
2019-03-29T22:12:32.751Z,24.67
2019-03-29T22:14:57.115Z,22.52
2019-03-29T22:17:18.710Z,24.67
2019-03-29T22:19:39.303Z,20.25
2019-03-29T22:21:59.829Z,25.45
2019-03-29T22:24:20.307Z,24.57
2019-03-29T22:26:40.810Z,25.35
2019-03-29T22:29:02.479Z,20.97
2019-03-29T22:31:22.963Z,25.15
2019-03-29T22:33:43.535Z,32.23
2019-03-29T22:36:04.088Z,26.62
2019-03-29T22:38:24.709Z,22.73
2019-03-29T22:40:45.318Z,23.98
2019-03-29T22:43:07.411Z,24.87
2019-03-29T22:45:27.640Z,20.17
2019-03-29T22:47:48.142Z,24.12
2019-03-29T22:50:09.150Z,20.95
2019-03-29T22:52:30.758Z,26.45
2019-03-29T22:54:51.287Z,24.63
2019-03-29T22:57:12.556Z,29.35
2019-03-29T22:59:33.129Z,26.65
2019-03-29T23:01:53.962Z,25.48
2019-03-29T23:04:14.644Z,27.77
2019-03-29T23:06:35.588Z,22.85
2019-03-29T23:08:56.234Z,24.55
2019-03-29T23:11:16.981Z,27.67
2019-03-29T23:13:37.543Z,23.73
2019-03-29T23:15:58.143Z,26.65
2019-03-29T23:18:19.090Z,25.97
2019-03-29T23:20:40.104Z,26.30
2019-03-29T23:23:00.693Z,24.45
2019-03-29T23:25:21.243Z,24.32
2019-03-29T23:27:41.831Z,27.32
2019-03-29T23:30:04.170Z,28.77
2019-03-29T23:32:24.290Z,17.93
2019-03-29T23:34:44.906Z,27.00
2019-03-29T23:37:05.652Z,24.85
2019-03-29T23:39:26.117Z,25.17
2019-03-29T23:41:47.056Z,25.12
2019-03-29T23:44:07.733Z,27.07
2019-03-29T23:46:28.211Z,28.10
2019-03-29T23:48:48.754Z,28.30
2019-03-29T23:51:09.213Z,32.85
2019-03-29T23:53:29.750Z,26.35
2019-03-29T23:55:50.307Z,32.98
2019-03-29T23:58:10.791Z,24.85
